Time;durP1;ratioP1;P1;durP2;ratioP2;P2;SDS_P1;SDS_P2;PMS_P1;PMS_P2;Temp;Humidity;BMP_temperature;BMP_pressure;BME280_temperature;BME280_humidity;BME280_pressure;Samples;Min_cycle;Max_cycle;Signal;HPM_P1;HPM_P2
2020/12/03 00:00:46;;;;;;;44.78;18.00;;;0.50;41.20;;;;;;5046529;28;20057;-67
2020/12/03 00:03:18;;;;;;;43.95;19.75;;;0.60;40.30;;;;;;5050308;28;20047;-67
2020/12/03 00:05:54;;;;;;;39.70;17.70;;;0.70;39.90;;;;;;5051885;28;20059;-67
2020/12/03 00:08:22;;;;;;;40.45;18.80;;;0.70;39.10;;;;;;5037363;28;20049;-68
2020/12/03 00:10:49;;;;;;;40.10;18.27;;;0.60;38.60;;;;;;5050467;28;20059;-67
2020/12/03 00:13:20;;;;;;;43.00;19.30;;;0.60;39.20;;;;;;5052244;28;20067;-68
2020/12/03 00:15:54;;;;;;;42.70;19.58;;;0.60;39.50;;;;;;5050201;28;20612;-68
2020/12/03 00:18:21;;;;;;;43.95;20.52;;;0.60;39.80;;;;;;5050819;28;20666;-68
2020/12/03 00:20:50;;;;;;;43.35;18.63;;;0.60;39.50;;;;;;5050540;28;20155;-67
2020/12/03 00:23:18;;;;;;;42.85;18.50;;;0.60;40.50;;;;;;5049570;28;20053;-67
2020/12/03 00:25:46;;;;;;;40.08;18.80;;;0.50;40.60;;;;;;5051032;28;20493;-67
2020/12/03 00:28:13;;;;;;;44.97;18.75;;;0.50;41.00;;;;;;5056258;28;20053;-67
2020/12/03 00:30:45;;;;;;;36.63;18.13;;;0.50;40.60;;;;;;5050990;28;20099;-67
2020/12/03 00:33:17;;;;;;;40.88;17.83;;;0.50;41.20;;;;;;5050366;28;20060;-67
2020/12/03 00:35:45;;;;;;;38.33;18.40;;;0.50;41.20;;;;;;5033392;28;20102;-67
2020/12/03 00:38:13;;;;;;;43.25;19.52;;;0.40;42.50;;;;;;5033549;28;20080;-67
2020/12/03 00:40:40;;;;;;;46.03;19.35;;;0.50;42.70;;;;;;5053461;28;20059;-67
2020/12/03 00:43:08;;;;;;;40.60;18.67;;;0.50;42.50;;;;;;5050321;28;20051;-67
2020/12/03 00:45:38;;;;;;;44.78;19.45;;;0.50;42.50;;;;;;5034464;28;20064;-67
2020/12/03 00:48:06;;;;;;;41.28;19.10;;;0.60;42.20;;;;;;5049311;28;20052;-66
2020/12/03 00:50:37;;;;;;;40.13;17.80;;;0.60;41.30;;;;;;5051675;28;20045;-67
2020/12/03 00:53:09;;;;;;;42.38;20.15;;;0.60;41.30;;;;;;5050617;28;20056;-68
2020/12/03 00:55:38;;;;;;;42.58;18.85;;;0.50;42.60;;;;;;5053492;28;20047;-66
2020/12/03 00:58:11;;;;;;;46.13;19.35;;;0.50;42.60;;;;;;5032108;28;20048;-68
2020/12/03 01:00:38;;;;;;;45.20;19.58;;;0.50;42.60;;;;;;5049599;28;20668;-66
2020/12/03 01:03:08;;;;;;;39.80;18.35;;;0.40;43.50;;;;;;5034212;28;20144;-67
2020/12/03 01:05:36;;;;;;;41.72;20.00;;;0.40;43.90;;;;;;5053191;28;20082;-68
2020/12/03 01:08:12;;;;;;;41.25;19.05;;;0.40;44.10;;;;;;5032851;28;20049;-67
2020/12/03 01:10:41;;;;;;;46.20;20.13;;;0.50;44.60;;;;;;5050456;28;20067;-66
2020/12/03 01:13:09;;;;;;;45.97;18.77;;;0.50;44.60;;;;;;5051210;28;20118;-67
2020/12/03 01:15:36;;;;;;;46.92;20.05;;;0.60;43.90;;;;;;5048681;28;20595;-66
2020/12/03 01:18:05;;;;;;;41.40;18.42;;;0.70;44.00;;;;;;5050151;28;20076;-67
2020/12/03 01:20:33;;;;;;;54.80;22.05;;;0.60;42.70;;;;;;5051383;28;20436;-68
2020/12/03 01:23:01;;;;;;;44.88;20.77;;;0.60;43.70;;;;;;5049119;28;20057;-67
2020/12/03 01:25:30;;;;;;;43.25;19.80;;;0.60;42.70;;;;;;5050104;28;20114;-67
2020/12/03 01:28:00;;;;;;;47.08;20.17;;;0.50;44.00;;;;;;5050868;28;20052;-68
2020/12/03 01:30:27;;;;;;;46.92;21.65;;;0.40;45.30;;;;;;5051137;28;20115;-67
2020/12/03 01:32:55;;;;;;;40.58;19.10;;;0.50;45.50;;;;;;5050800;28;20049;-67
2020/12/03 01:35:23;;;;;;;42.63;20.38;;;0.50;45.50;;;;;;5032732;28;20163;-67
2020/12/03 01:37:54;;;;;;;45.97;20.05;;;0.40;44.80;;;;;;5051744;28;20041;-67
2020/12/03 01:40:26;;;;;;;51.90;20.65;;;0.60;46.30;;;;;;5052120;28;20052;-67
2020/12/03 01:42:58;;;;;;;42.58;19.58;;;0.60;45.50;;;;;;5050161;28;20115;-67
2020/12/03 01:45:53;;;;;;;47.88;20.05;;;0.70;45.60;;;;;;5032006;28;20056;-67
2020/12/03 01:48:43;;;;;;;43.50;19.48;;;0.70;45.30;;;;;;5031129;28;20045;-67
2020/12/03 01:51:17;;;;;;;53.03;20.65;;;0.70;45.90;;;;;;5025668;28;20103;-67
2020/12/03 01:53:46;;;;;;;44.83;19.77;;;0.60;46.10;;;;;;5048851;28;20501;-68
2020/12/03 01:56:41;;;;;;;49.45;21.23;;;0.60;46.40;;;;;;5048955;28;20049;-67
2020/12/03 01:59:10;;;;;;;49.38;21.20;;;0.60;47.30;;;;;;5050973;28;20056;-67
2020/12/03 02:01:38;;;;;;;48.78;22.58;;;0.70;46.80;;;;;;5048624;28;20135;-67
2020/12/03 02:04:11;;;;;;;46.88;20.63;;;0.60;46.70;;;;;;5051525;28;20044;-67
2020/12/03 02:06:43;;;;;;;53.22;22.17;;;0.60;46.60;;;;;;5049324;28;21270;-66
2020/12/03 02:09:14;;;;;;;48.05;20.63;;;0.60;47.20;;;;;;5036494;28;20485;-66
2020/12/03 02:11:41;;;;;;;49.63;22.52;;;0.50;48.00;;;;;;5048836;28;20072;-68
2020/12/03 02:14:12;;;;;;;56.17;22.80;;;0.50;47.70;;;;;;5053214;28;20102;-67
2020/12/03 02:16:42;;;;;;;46.17;21.50;;;0.50;47.50;;;;;;5048841;28;20049;-67
2020/12/03 02:19:21;;;;;;;51.25;21.98;;;0.40;48.40;;;;;;5048878;28;20468;-66
2020/12/03 02:21:58;;;;;;;54.55;22.08;;;0.50;48.30;;;;;;5050082;28;20041;-67
2020/12/03 02:24:28;;;;;;;51.42;23.25;;;0.50;47.00;;;;;;5047360;28;20084;-67
2020/12/03 02:26:56;;;;;;;47.17;21.75;;;0.60;46.90;;;;;;5049430;28;20063;-67
2020/12/03 02:29:27;;;;;;;51.50;21.77;;;0.60;47.90;;;;;;5050475;28;20057;-67
2020/12/03 02:31:57;;;;;;;51.38;21.95;;;0.50;47.00;;;;;;5046349;28;21316;-67
2020/12/03 02:34:25;;;;;;;49.17;22.23;;;0.50;47.50;;;;;;5047023;28;20068;-67
2020/12/03 02:36:56;;;;;;;53.85;22.38;;;0.50;48.50;;;;;;5048334;28;20394;-67
2020/12/03 02:39:25;;;;;;;48.70;22.48;;;0.60;49.10;;;;;;5034233;28;20405;-67
2020/12/03 02:41:57;;;;;;;57.30;22.65;;;0.60;48.00;;;;;;5032084;28;20041;-68
2020/12/03 02:44:31;;;;;;;53.22;23.58;;;0.60;49.50;;;;;;5051496;28;20052;-67
2020/12/03 02:47:01;;;;;;;53.90;23.40;;;0.60;50.20;;;;;;5049016;28;20083;-67
2020/12/03 02:49:28;;;;;;;50.90;22.83;;;0.50;49.50;;;;;;5048140;28;20052;-67
2020/12/03 02:51:58;;;;;;;57.30;23.90;;;0.50;50.60;;;;;;5047443;28;20134;-67
2020/12/03 02:54:26;;;;;;;54.85;23.52;;;0.50;49.10;;;;;;5047622;28;20052;-68
2020/12/03 02:56:56;;;;;;;53.08;23.35;;;0.50;49.70;;;;;;5051201;28;20179;-67
2020/12/03 02:59:24;;;;;;;57.15;23.25;;;0.50;49.20;;;;;;5049126;28;20072;-67
2020/12/03 03:01:53;;;;;;;50.38;22.92;;;0.50;49.30;;;;;;5049306;28;20545;-66
2020/12/03 03:04:21;;;;;;;52.22;23.83;;;0.50;49.90;;;;;;5051379;28;20055;-68
2020/12/03 03:06:49;;;;;;;55.58;24.27;;;0.60;48.90;;;;;;5031193;28;20390;-67
2020/12/03 03:09:20;;;;;;;58.67;25.58;;;0.50;48.80;;;;;;5033788;28;20095;-67
2020/12/03 03:11:48;;;;;;;67.72;24.52;;;0.60;49.70;;;;;;5047246;28;20110;-67
2020/12/03 03:14:17;;;;;;;59.53;25.35;;;0.60;48.30;;;;;;5048203;28;20074;-67
2020/12/03 03:16:45;;;;;;;50.75;22.90;;;0.60;48.50;;;;;;5048914;28;20102;-67
2020/12/03 03:19:13;;;;;;;49.53;22.55;;;0.50;49.70;;;;;;5052105;28;20052;-67
2020/12/03 03:21:40;;;;;;;58.10;23.00;;;0.50;49.90;;;;;;5049089;28;20070;-66
2020/12/03 03:24:08;;;;;;;53.92;22.70;;;0.50;49.30;;;;;;5048231;28;20127;-69
2020/12/03 03:26:37;;;;;;;56.70;23.38;;;0.60;50.40;;;;;;5048395;28;20052;-66
2020/12/03 03:29:05;;;;;;;48.95;22.55;;;0.50;49.90;;;;;;5051083;28;20056;-67
2020/12/03 03:31:39;;;;;;;53.42;23.42;;;0.60;51.20;;;;;;5049007;28;20045;-67
2020/12/03 03:34:08;;;;;;;52.90;23.75;;;0.60;50.20;;;;;;5047750;28;20460;-68
2020/12/03 03:36:35;;;;;;;58.70;24.70;;;0.60;50.60;;;;;;5048371;28;20045;-67
2020/12/03 03:39:05;;;;;;;53.75;24.13;;;0.70;49.40;;;;;;5053724;28;20048;-67
2020/12/03 03:41:34;;;;;;;56.10;23.77;;;0.60;50.60;;;;;;5034377;28;20140;-67
2020/12/03 03:44:05;;;;;;;60.28;23.90;;;0.60;50.60;;;;;;5052288;28;20052;-66
2020/12/03 03:46:34;;;;;;;57.40;24.70;;;0.60;50.60;;;;;;5034455;28;20048;-67
2020/12/03 03:49:01;;;;;;;58.22;24.55;;;0.60;49.50;;;;;;5052940;28;20053;-68
2020/12/03 03:51:32;;;;;;;57.70;25.35;;;0.60;50.60;;;;;;5053383;28;20055;-69
2020/12/03 03:54:00;;;;;;;50.97;22.23;;;0.70;50.70;;;;;;5036929;28;20078;-68
2020/12/03 03:56:28;;;;;;;52.40;24.85;;;0.60;49.80;;;;;;5051459;28;20512;-69
2020/12/03 03:58:59;;;;;;;58.95;24.38;;;0.60;49.60;;;;;;5052479;28;20432;-67
2020/12/03 04:01:28;;;;;;;58.47;25.40;;;0.60;49.10;;;;;;5052934;28;20045;-67
2020/12/03 04:03:58;;;;;;;55.42;23.77;;;0.50;47.90;;;;;;5050803;28;20119;-67
2020/12/03 04:06:27;;;;;;;53.78;24.00;;;0.60;48.40;;;;;;5034029;28;20111;-67
2020/12/03 04:08:58;;;;;;;58.83;25.38;;;0.50;47.20;;;;;;5035911;28;20164;-67
2020/12/03 04:11:26;;;;;;;60.60;25.45;;;0.50;48.30;;;;;;5035222;28;20073;-67
2020/12/03 04:13:57;;;;;;;59.80;24.90;;;0.60;48.70;;;;;;5051941;28;20048;-67
2020/12/03 04:16:24;;;;;;;55.47;24.50;;;0.60;47.60;;;;;;5051939;28;20137;-67
2020/12/03 04:18:54;;;;;;;64.18;25.08;;;0.70;48.20;;;;;;5053268;28;20145;-67
2020/12/03 04:21:22;;;;;;;55.03;23.75;;;0.60;47.90;;;;;;5051633;28;20552;-67
2020/12/03 04:23:50;;;;;;;60.47;24.40;;;0.60;46.90;;;;;;5052904;28;20128;-67
2020/12/03 04:26:19;;;;;;;62.60;25.60;;;0.60;47.70;;;;;;5032310;28;20045;-67
2020/12/03 04:28:47;;;;;;;49.63;24.08;;;0.60;47.40;;;;;;5053840;28;20086;-67
2020/12/03 04:31:17;;;;;;;52.15;23.77;;;0.60;47.50;;;;;;5034820;28;20098;-68
2020/12/03 04:33:46;;;;;;;55.05;25.05;;;0.70;47.90;;;;;;5051256;28;20044;-66
2020/12/03 04:36:16;;;;;;;49.47;22.50;;;0.60;47.50;;;;;;5051045;28;20083;-67
2020/12/03 04:38:45;;;;;;;56.53;25.17;;;0.70;46.90;;;;;;5054225;28;20053;-67
2020/12/03 04:41:14;;;;;;;56.13;23.55;;;0.80;46.80;;;;;;5051033;28;20110;-67
2020/12/03 04:43:44;;;;;;;52.70;24.48;;;0.80;45.30;;;;;;5051133;28;20493;-66
2020/12/03 04:46:25;;;;;;;52.95;24.58;;;0.70;45.10;;;;;;5049575;28;20053;-67
2020/12/03 04:49:25;;;;;;;54.10;23.38;;;0.70;46.20;;;;;;5051135;28;20128;-67
2020/12/03 04:52:39;;;;;;;52.85;24.02;;;0.70;45.90;;;;;;5047605;28;20102;-67
2020/12/03 04:55:19;;;;;;;58.40;24.50;;;0.80;46.40;;;;;;5057275;28;20076;-65
2020/12/03 04:58:07;;;;;;;53.78;23.83;;;0.70;45.50;;;;;;5053356;28;20535;-66
2020/12/03 05:00:45;;;;;;;52.83;23.05;;;0.70;46.30;;;;;;5034700;28;20045;-71
2020/12/03 05:03:42;;;;;;;51.50;23.67;;;0.70;46.80;;;;;;5052482;28;20041;-66
2020/12/03 05:06:36;;;;;;;54.92;23.63;;;0.70;46.70;;;;;;5051749;28;20041;-67
2020/12/03 05:09:14;;;;;;;52.90;23.98;;;0.70;46.60;;;;;;5050883;28;20136;-68
2020/12/03 05:11:47;;;;;;;58.63;26.50;;;0.80;46.60;;;;;;5031775;28;20057;-67
2020/12/03 05:14:36;;;;;;;55.80;23.83;;;0.80;46.30;;;;;;5053003;28;20074;-68
2020/12/03 05:17:47;;;;;;;48.90;23.15;;;0.80;47.70;;;;;;5050001;28;20049;-68
2020/12/03 05:20:32;;;;;;;51.60;22.33;;;0.90;46.30;;;;;;5050631;28;20137;-67
2020/12/03 05:23:09;;;;;;;52.60;23.65;;;0.80;46.80;;;;;;5050478;28;20734;-67
2020/12/03 05:25:38;;;;;;;53.17;23.65;;;0.90;46.90;;;;;;5048530;28;20476;-67
2020/12/03 05:28:30;;;;;;;56.75;25.48;;;0.90;46.90;;;;;;5049974;28;20048;-73
2020/12/03 05:31:09;;;;;;;53.15;23.83;;;0.90;46.80;;;;;;5051896;28;20818;-64
2020/12/03 05:33:38;;;;;;;57.33;24.30;;;0.90;47.10;;;;;;5053947;28;20464;-66
2020/12/03 05:36:23;;;;;;;53.80;24.75;;;0.90;47.10;;;;;;5049351;28;20061;-69
2020/12/03 05:38:52;;;;;;;52.38;23.60;;;0.90;46.90;;;;;;5050534;28;20048;-67
2020/12/03 05:41:23;;;;;;;51.30;23.38;;;0.90;46.60;;;;;;5048755;28;20053;-65
2020/12/03 05:43:51;;;;;;;49.78;23.00;;;1.00;46.20;;;;;;5032263;28;20488;-66
2020/12/03 05:46:24;;;;;;;50.92;23.08;;;1.00;45.90;;;;;;5049819;28;20059;-68
2020/12/03 05:48:56;;;;;;;50.00;21.55;;;1.00;45.60;;;;;;5047863;28;20044;-68
2020/12/03 05:51:27;;;;;;;57.75;22.73;;;1.00;45.00;;;;;;5048995;28;20051;-67
2020/12/03 05:54:02;;;;;;;48.77;23.00;;;1.10;44.70;;;;;;5052184;28;20048;-68
2020/12/03 05:56:33;;;;;;;47.13;21.48;;;1.00;45.10;;;;;;5049131;28;20657;-66
2020/12/03 05:59:14;;;;;;;46.08;21.58;;;1.00;44.40;;;;;;5050768;28;20041;-67
2020/12/03 06:01:58;;;;;;;52.13;23.77;;;1.00;44.40;;;;;;5054031;28;20056;-66
2020/12/03 06:04:33;;;;;;;49.10;22.58;;;1.00;43.80;;;;;;5052748;28;20148;-67
2020/12/03 06:07:31;;;;;;;50.83;23.02;;;1.00;43.00;;;;;;5048023;28;20051;-70
2020/12/03 06:10:26;;;;;;;53.20;22.63;;;1.00;44.10;;;;;;5053730;28;20049;-65
2020/12/03 06:13:14;;;;;;;50.97;21.52;;;1.00;44.50;;;;;;5052133;28;20497;-68
2020/12/03 06:15:48;;;;;;;45.38;21.10;;;1.00;45.70;;;;;;5058647;28;20084;-65
2020/12/03 06:18:39;;;;;;;52.15;22.58;;;1.10;45.10;;;;;;5052292;28;20060;-72
2020/12/03 06:21:35;;;;;;;49.15;22.00;;;1.10;44.90;;;;;;5051554;28;20068;-67
2020/12/03 06:24:19;;;;;;;51.28;21.65;;;1.10;44.00;;;;;;5036086;28;20041;-67
2020/12/03 06:27:20;;;;;;;45.85;21.77;;;1.20;43.30;;;;;;5053332;28;20106;-66
2020/12/03 06:30:09;;;;;;;49.15;21.92;;;1.20;43.20;;;;;;5047613;28;20489;-67
2020/12/03 06:33:01;;;;;;;46.95;21.23;;;1.20;43.80;;;;;;5053856;28;20536;-67
2020/12/03 06:35:42;;;;;;;43.72;20.40;;;1.30;43.30;;;;;;5005648;28;20102;-65
2020/12/03 06:38:24;;;;;;;46.20;21.65;;;1.30;43.20;;;;;;5051342;28;20048;-65
2020/12/03 06:40:59;;;;;;;45.63;20.38;;;1.30;42.70;;;;;;5053135;28;20057;-66
2020/12/03 06:43:33;;;;;;;42.47;19.70;;;1.30;43.20;;;;;;5049911;28;20044;-65
2020/12/03 06:46:45;;;;;;;42.45;18.40;;;1.30;42.20;;;;;;5045466;28;20059;-69
2020/12/03 06:49:49;;;;;;;37.58;18.45;;;1.40;43.30;;;;;;5050460;28;20051;-67
2020/12/03 06:52:40;;;;;;;38.80;18.48;;;1.40;41.60;;;;;;5048344;28;20135;-67
2020/12/03 06:55:39;;;;;;;40.10;18.30;;;1.50;39.60;;;;;;5048569;28;20045;-66
2020/12/03 06:58:23;;;;;;;33.10;17.15;;;1.50;39.90;;;;;;5050824;28;20045;-69
2020/12/03 07:01:34;;;;;;;35.83;16.83;;;1.50;40.40;;;;;;5050553;28;20052;-70
2020/12/03 07:04:55;;;;;;;33.45;16.70;;;1.50;39.40;;;;;;5044494;28;20056;-65
2020/12/03 07:08:02;;;;;;;36.30;16.48;;;1.60;38.70;;;;;;5051574;28;20075;-69
2020/12/03 07:11:03;;;;;;;34.30;16.67;;;1.60;38.10;;;;;;5046992;28;20045;-72
2020/12/03 07:14:12;;;;;;;37.00;16.73;;;1.60;37.80;;;;;;5054685;28;20049;-65
2020/12/03 07:17:31;;;;;;;31.80;15.48;;;1.60;37.60;;;;;;5054851;28;20068;-72
2020/12/03 07:20:36;;;;;;;31.25;14.95;;;1.60;35.30;;;;;;5055401;28;20057;-66
2020/12/03 07:23:07;;;;;;;25.55;14.07;;;1.70;35.30;;;;;;5029194;28;20055;-67
2020/12/03 07:25:39;;;;;;;25.52;14.02;;;1.70;33.90;;;;;;5060559;28;20570;-66
2020/12/03 07:28:19;;;;;;;27.08;13.25;;;1.80;32.40;;;;;;5059856;28;20849;-66
2020/12/03 07:30:52;;;;;;;25.05;12.80;;;1.80;32.00;;;;;;5054456;28;20049;-66
2020/12/03 07:33:55;;;;;;;25.77;12.90;;;1.90;30.60;;;;;;5042845;28;20122;-67
2020/12/03 07:36:40;;;;;;;21.52;10.98;;;1.90;28.90;;;;;;5039184;28;20053;-66
2020/12/03 07:39:12;;;;;;;21.40;11.32;;;1.90;27.80;;;;;;5047071;28;20057;-66
2020/12/03 07:41:48;;;;;;;18.77;10.50;;;2.00;27.80;;;;;;5054960;28;20088;-68
2020/12/03 07:44:22;;;;;;;25.75;11.75;;;2.10;27.00;;;;;;5052354;28;20065;-69
2020/12/03 07:46:51;;;;;;;24.08;11.88;;;2.10;26.50;;;;;;5053809;28;20502;-70
2020/12/03 07:49:41;;;;;;;23.67;12.00;;;2.10;27.10;;;;;;5052725;28;20048;-66
2020/12/03 07:52:30;;;;;;;20.60;10.68;;;2.10;26.80;;;;;;5054605;28;20044;-68
2020/12/03 07:55:29;;;;;;;19.17;10.18;;;2.20;26.10;;;;;;5053962;28;20053;-69
2020/12/03 07:57:58;;;;;;;19.77;10.82;;;2.30;26.70;;;;;;5046659;28;20053;-66
2020/12/03 08:00:56;;;;;;;17.70;9.73;;;2.30;25.50;;;;;;5053199;28;20724;-69
2020/12/03 08:03:41;;;;;;;18.33;8.70;;;2.30;24.80;;;;;;5052168;28;20156;-67
2020/12/03 08:06:22;;;;;;;13.68;8.00;;;2.30;23.80;;;;;;5050641;28;20045;-67
2020/12/03 08:08:52;;;;;;;16.35;8.90;;;2.40;22.40;;;;;;5052814;28;20056;-67
2020/12/03 08:11:41;;;;;;;17.38;9.15;;;2.40;21.40;;;;;;5051834;28;20503;-68
2020/12/03 08:14:34;;;;;;;12.52;7.53;;;2.40;21.40;;;;;;5053326;28;20055;-67
2020/12/03 08:17:03;;;;;;;13.05;7.85;;;2.50;20.70;;;;;;5051615;28;20052;-68
2020/12/03 08:19:33;;;;;;;10.38;6.88;;;2.50;20.50;;;;;;5053202;28;20057;-69
2020/12/03 08:22:01;;;;;;;13.73;7.55;;;2.50;20.40;;;;;;5053159;28;20041;-68
2020/12/03 08:24:30;;;;;;;15.85;7.82;;;2.60;21.50;;;;;;5051176;28;20049;-68
2020/12/03 08:26:58;;;;;;;15.35;7.47;;;2.60;20.50;;;;;;5049712;28;20048;-68
2020/12/03 08:29:47;;;;;;;10.18;6.13;;;2.60;20.20;;;;;;5052769;28;20052;-68
2020/12/03 08:32:14;;;;;;;12.07;6.68;;;2.70;18.70;;;;;;5051898;28;20043;-67
2020/12/03 08:34:43;;;;;;;12.18;6.72;;;2.80;19.60;;;;;;5051463;28;20060;-67
2020/12/03 08:37:14;;;;;;;18.83;10.00;;;2.80;20.00;;;;;;5051353;28;20393;-67
2020/12/03 08:39:44;;;;;;;11.05;6.47;;;2.90;18.30;;;;;;5052824;28;20524;-68
2020/12/03 08:42:12;;;;;;;14.43;7.22;;;2.90;17.40;;;;;;5051684;28;20127;-68
2020/12/03 08:44:40;;;;;;;12.25;6.45;;;3.00;16.80;;;;;;5052198;28;20063;-69
2020/12/03 08:47:11;;;;;;;13.63;6.80;;;3.00;16.80;;;;;;5050122;28;20045;-68
2020/12/03 08:49:43;;;;;;;10.55;6.30;;;3.10;15.90;;;;;;5051579;28;20048;-67
2020/12/03 08:52:10;;;;;;;10.73;6.35;;;3.10;14.90;;;;;;5052849;28;20045;-69
2020/12/03 08:54:37;;;;;;;12.55;6.07;;;3.20;15.00;;;;;;5051840;28;20069;-68
2020/12/03 08:57:10;;;;;;;15.98;6.82;;;3.20;13.00;;;;;;5051303;28;20049;-67
2020/12/03 08:59:42;;;;;;;9.43;5.60;;;3.20;12.70;;;;;;5052360;28;20045;-68
2020/12/03 09:02:10;;;;;;;8.40;5.07;;;3.30;10.70;;;;;;5051697;28;20052;-68
2020/12/03 09:04:43;;;;;;;10.07;4.47;;;3.50;9.30;;;;;;5051658;28;20045;-68
2020/12/03 09:07:14;;;;;;;9.43;4.55;;;3.50;9.20;;;;;;5051342;28;20131;-67
2020/12/03 09:09:45;;;;;;;6.68;4.20;;;3.50;7.30;;;;;;5051644;28;20056;-67
2020/12/03 09:12:14;;;;;;;13.10;4.57;;;3.50;7.50;;;;;;5051858;28;20489;-67
2020/12/03 09:14:42;;;;;;;26.48;6.25;;;3.60;8.10;;;;;;5050962;28;20048;-68
2020/12/03 09:17:10;;;;;;;12.63;5.30;;;3.60;8.10;;;;;;5051344;28;20074;-68
2020/12/03 09:19:39;;;;;;;10.57;5.50;;;3.50;8.00;;;;;;5051140;28;20045;-68
2020/12/03 09:22:07;;;;;;;14.30;5.78;;;3.50;8.00;;;;;;5051981;28;20048;-68
2020/12/03 09:24:36;;;;;;;17.67;6.60;;;3.40;8.00;;;;;;5051353;28;20511;-69
2020/12/03 09:27:05;;;;;;;12.10;6.57;;;3.40;8.00;;;;;;5050890;28;20053;-68
2020/12/03 09:29:32;;;;;;;13.02;7.03;;;3.50;8.00;;;;;;5051999;28;20045;-67
2020/12/03 09:32:16;;;;;;;15.25;6.93;;;3.50;8.00;;;;;;5050568;28;20177;-68
2020/12/03 09:34:45;;;;;;;15.02;7.20;;;3.60;8.10;;;;;;5050548;28;20056;-68
2020/12/03 09:37:12;;;;;;;17.13;8.40;;;3.70;8.20;;;;;;5049397;28;20045;-67
2020/12/03 09:39:41;;;;;;;19.02;9.20;;;3.70;8.90;;;;;;5051727;28;20049;-68
2020/12/03 09:42:13;;;;;;;31.38;7.72;;;3.80;8.60;;;;;;5049061;28;20048;-67
2020/12/03 09:44:43;;;;;;;21.60;8.73;;;3.80;9.30;;;;;;5050308;28;20399;-67
2020/12/03 09:47:14;;;;;;;13.05;7.13;;;3.80;9.20;;;;;;5049363;28;20056;-68
2020/12/03 09:49:41;;;;;;;20.10;8.18;;;3.80;8.20;;;;;;5051179;28;20041;-67
2020/12/03 09:52:10;;;;;;;18.92;7.80;;;3.80;8.20;;;;;;5050857;28;20049;-68
2020/12/03 09:54:37;;;;;;;19.10;7.88;;;3.90;8.10;;;;;;5050155;28;20049;-68
2020/12/03 09:57:08;;;;;;;13.27;7.70;;;3.90;8.30;;;;;;5048971;28;20056;-67
2020/12/03 09:59:37;;;;;;;11.15;7.28;;;3.80;7.10;;;;;;5051603;28;20048;-65
2020/12/03 10:02:52;;;;;;;15.95;8.10;;;3.90;6.60;;;;;;5049415;28;20052;-68
2020/12/03 10:05:30;;;;;;;15.07;7.82;;;3.80;7.20;;;;;;5049508;28;20095;-67
2020/12/03 10:08:20;;;;;;;17.45;8.00;;;3.80;7.50;;;;;;5051365;28;20508;-66
2020/12/03 10:10:55;;;;;;;22.10;7.45;;;3.90;6.50;;;;;;5044251;28;20103;-66
2020/12/03 10:13:37;;;;;;;11.82;7.38;;;3.90;6.80;;;;;;5051387;28;20056;-67
2020/12/03 10:16:07;;;;;;;21.08;7.90;;;3.90;5.90;;;;;;5045242;28;20513;-66
2020/12/03 10:18:39;;;;;;;14.95;7.43;;;3.90;6.70;;;;;;5051474;28;20052;-67
2020/12/03 10:21:06;;;;;;;17.95;8.10;;;3.90;7.00;;;;;;5051637;28;20048;-67
2020/12/03 10:23:57;;;;;;;13.68;8.60;;;3.90;7.20;;;;;;5051228;28;20059;-66
2020/12/03 10:26:32;;;;;;;12.98;7.10;;;3.90;6.70;;;;;;5049261;28;20055;-68
2020/12/03 10:29:21;;;;;;;12.00;6.70;;;3.90;7.40;;;;;;5051197;28;20539;-69
2020/12/03 10:31:49;;;;;;;13.55;8.43;;;4.10;6.90;;;;;;5043740;28;20041;-67
2020/12/03 10:34:18;;;;;;;13.30;7.90;;;4.10;6.80;;;;;;5051061;28;20044;-67
2020/12/03 10:36:51;;;;;;;17.88;8.10;;;4.10;6.40;;;;;;5049697;28;20052;-65
2020/12/03 10:39:18;;;;;;;12.32;6.43;;;4.10;7.00;;;;;;5047143;28;20045;-70
2020/12/03 10:41:52;;;;;;;14.73;6.60;;;4.00;5.80;;;;;;5051419;28;20516;-68
2020/12/03 10:44:25;;;;;;;12.73;6.63;;;4.10;4.80;;;;;;5050749;28;20044;-66
2020/12/03 10:46:58;;;;;;;12.00;7.53;;;4.00;4.40;;;;;;5042302;28;20049;-66
2020/12/03 10:49:27;;;;;;;13.50;7.00;;;4.20;4.20;;;;;;5048901;28;20048;-67
2020/12/03 10:52:00;;;;;;;14.75;5.95;;;4.20;4.80;;;;;;5051726;28;20071;-66
2020/12/03 10:54:28;;;;;;;13.05;6.30;;;4.30;4.20;;;;;;5047269;28;20053;-67
2020/12/03 10:56:56;;;;;;;9.77;5.82;;;4.20;3.60;;;;;;5050452;28;20099;-66
2020/12/03 10:59:37;;;;;;;17.33;7.38;;;4.20;4.60;;;;;;5051264;28;20523;-66
2020/12/03 11:02:08;;;;;;;13.70;7.35;;;4.20;4.20;;;;;;5048052;28;20041;-68
2020/12/03 11:04:38;;;;;;;15.63;8.70;;;4.20;5.00;;;;;;5049371;28;20041;-68
2020/12/03 11:07:11;;;;;;;16.02;7.38;;;4.20;4.10;;;;;;5049441;28;20045;-68
2020/12/03 11:09:40;;;;;;;12.10;6.78;;;4.20;4.80;;;;;;5048397;28;20044;-68
2020/12/03 11:12:11;;;;;;;12.27;6.60;;;4.30;4.90;;;;;;5050217;28;20049;-69
2020/12/03 11:14:39;;;;;;;24.23;7.05;;;4.30;4.70;;;;;;5049348;28;20045;-69
2020/12/03 11:17:40;;;;;;;10.57;6.10;;;4.20;4.40;;;;;;5049076;28;20056;-68
2020/12/03 11:20:31;;;;;;;11.13;6.00;;;4.30;4.00;;;;;;5044767;28;20056;-69
2020/12/03 11:23:20;;;;;;;10.63;5.50;;;4.40;4.10;;;;;;5049698;28;20076;-66
2020/12/03 11:25:48;;;;;;;11.35;6.68;;;4.30;3.50;;;;;;5044578;28;20064;-66
2020/12/03 11:28:28;;;;;;;19.75;11.00;;;4.20;3.80;;;;;;5045683;28;20045;-70
2020/12/03 11:31:01;;;;;;;11.90;6.38;;;4.20;4.70;;;;;;5048850;28;20056;-66
2020/12/03 11:33:36;;;;;;;12.23;7.32;;;4.20;4.50;;;;;;5050743;28;20053;-66
2020/12/03 11:36:12;;;;;;;13.25;7.15;;;4.10;4.80;;;;;;5049230;28;20579;-67
2020/12/03 11:38:44;;;;;;;16.30;7.20;;;4.30;5.80;;;;;;5050814;28;20048;-66
2020/12/03 11:41:22;;;;;;;19.60;7.93;;;4.10;5.60;;;;;;5043456;28;20045;-66
2020/12/03 11:49:29;;;;;;;14.35;7.40;;;3.90;5.80;;;;;;5046299;28;20057;-75
2020/12/03 11:52:11;;;;;;;13.73;6.60;;;4.00;5.60;;;;;;5046933;28;20409;-69
2020/12/03 11:54:38;;;;;;;9.77;6.50;;;3.90;5.50;;;;;;5048088;28;20568;-67
2020/12/03 11:57:06;;;;;;;13.90;5.78;;;4.00;4.80;;;;;;5051989;28;20084;-66
2020/12/03 11:59:33;;;;;;;16.48;7.25;;;3.80;4.60;;;;;;5051857;28;20041;-68
2020/12/03 12:02:03;;;;;;;22.85;9.27;;;3.90;5.40;;;;;;5052438;28;20041;-66
2020/12/03 12:04:37;;;;;;;16.17;6.28;;;4.00;5.30;;;;;;5052101;28;20591;-68
2020/12/03 12:07:11;;;;;;;13.38;6.03;;;3.90;4.90;;;;;;5049277;28;20056;-67
2020/12/03 12:09:45;;;;;;;10.35;5.53;;;4.00;5.60;;;;;;5051786;28;20057;-68
2020/12/03 12:12:13;;;;;;;11.13;5.75;;;4.10;5.50;;;;;;5051993;28;20055;-67
2020/12/03 12:14:40;;;;;;;9.40;5.65;;;3.90;5.50;;;;;;5049309;28;20881;-68
2020/12/03 12:17:08;;;;;;;16.98;6.97;;;3.90;5.20;;;;;;5047520;28;20056;-67
2020/12/03 12:19:36;;;;;;;12.60;6.18;;;4.10;5.50;;;;;;5051339;28;20070;-67
2020/12/03 12:22:05;;;;;;;11.90;6.32;;;4.10;5.30;;;;;;5054796;28;20049;-66
2020/12/03 12:24:32;;;;;;;13.02;6.13;;;4.00;5.40;;;;;;5051303;28;20044;-67
2020/12/03 12:26:58;;;;;;;12.32;6.50;;;3.90;5.60;;;;;;5046646;28;20048;-68
2020/12/03 12:29:26;;;;;;;11.75;6.97;;;3.90;6.10;;;;;;5053651;28;20067;-67
2020/12/03 12:31:53;;;;;;;12.27;7.40;;;4.00;6.10;;;;;;5053023;28;20093;-67
2020/12/03 12:34:21;;;;;;;16.67;7.13;;;4.10;6.00;;;;;;5052399;28;20044;-65
2020/12/03 12:36:48;;;;;;;10.85;6.28;;;3.90;5.00;;;;;;5051076;28;20057;-72
2020/12/03 12:39:14;;;;;;;14.60;7.07;;;3.90;5.20;;;;;;5051077;28;20045;-67
2020/12/03 12:41:41;;;;;;;19.15;7.03;;;4.00;5.30;;;;;;5054543;28;20052;-68
2020/12/03 12:44:08;;;;;;;14.57;6.60;;;4.00;6.50;;;;;;5054062;28;20091;-67
2020/12/03 12:46:35;;;;;;;16.20;7.93;;;4.00;5.70;;;;;;5049264;28;20052;-67
2020/12/03 12:49:02;;;;;;;17.13;7.97;;;4.20;5.10;;;;;;5051725;28;20048;-68
2020/12/03 12:51:30;;;;;;;12.95;7.63;;;4.10;4.80;;;;;;5050598;28;20168;-68
2020/12/03 12:53:57;;;;;;;14.98;7.80;;;4.10;5.20;;;;;;5052837;28;20053;-69
2020/12/03 12:56:24;;;;;;;18.02;8.93;;;4.10;6.10;;;;;;5050967;28;20052;-68
2020/12/03 12:58:50;;;;;;;17.77;7.82;;;4.20;5.80;;;;;;5048100;28;20040;-68
2020/12/03 13:01:17;;;;;;;13.30;7.05;;;4.20;6.00;;;;;;5054084;28;20053;-68
2020/12/03 13:03:44;;;;;;;14.02;6.90;;;4.30;6.10;;;;;;5049639;28;20136;-68
2020/12/03 13:06:11;;;;;;;12.07;6.93;;;4.20;6.70;;;;;;5050841;28;20049;-69
2020/12/03 13:08:38;;;;;;;16.30;7.13;;;4.10;5.60;;;;;;5049346;28;20041;-68
2020/12/03 13:11:10;;;;;;;12.43;6.95;;;4.10;6.20;;;;;;5052432;28;20505;-68
2020/12/03 13:13:37;;;;;;;13.55;7.00;;;4.10;6.20;;;;;;5049871;28;20053;-65
2020/12/03 13:16:04;;;;;;;17.98;7.78;;;4.10;6.40;;;;;;5050278;28;20052;-69
2020/12/03 13:18:31;;;;;;;20.15;7.85;;;4.20;6.20;;;;;;5049630;28;20053;-65
2020/12/03 13:20:58;;;;;;;16.20;7.75;;;4.20;6.50;;;;;;5061684;28;20707;-65
2020/12/03 13:23:25;;;;;;;21.35;7.32;;;4.20;6.60;;;;;;5056722;28;20421;-71
2020/12/03 13:25:52;;;;;;;15.40;7.07;;;4.20;7.00;;;;;;5054382;28;20045;-66
2020/12/03 13:28:19;;;;;;;14.15;6.95;;;4.20;7.00;;;;;;5045914;28;20056;-68